createdAt,value
2017-07-01T00:00:12.604Z,6.43
2017-07-01T00:02:40.833Z,5.53
2017-07-01T00:05:08.487Z,5.47
2017-07-01T00:07:36.079Z,5.73
2017-07-01T00:10:03.627Z,5.83
2017-07-01T00:12:31.196Z,5.70
2017-07-01T00:14:58.769Z,5.17
2017-07-01T00:17:26.283Z,5.40
2017-07-01T00:19:54.397Z,6.17
2017-07-01T00:22:22.055Z,5.20
2017-07-01T00:24:49.614Z,5.63
2017-07-01T00:27:24.384Z,5.43
2017-07-01T00:29:52.001Z,6.37
2017-07-01T00:32:19.645Z,5.80
2017-07-01T00:34:47.232Z,5.97
2017-07-01T00:37:16.565Z,6.20
2017-07-01T00:39:45.127Z,5.77
2017-07-01T00:42:12.697Z,6.60
2017-07-01T00:44:40.333Z,5.60
2017-07-01T00:47:07.930Z,5.80
2017-07-01T00:49:35.524Z,5.80
2017-07-01T00:52:03.125Z,5.53
2017-07-01T00:54:30.729Z,5.80
2017-07-01T00:56:58.292Z,6.37
2017-07-01T00:59:25.812Z,5.50
2017-07-01T01:01:53.413Z,6.13
2017-07-01T01:04:20.959Z,5.90
2017-07-01T01:06:48.497Z,5.77
2017-07-01T01:09:16.998Z,5.37
2017-07-01T01:11:44.620Z,6.03
2017-07-01T01:14:12.445Z,6.10
2017-07-01T01:16:40.067Z,7.47
2017-07-01T01:19:07.628Z,5.60
2017-07-01T01:21:35.853Z,6.90
2017-07-01T01:24:03.414Z,6.17
2017-07-01T01:26:30.954Z,6.43
2017-07-01T01:28:58.474Z,6.80
2017-07-01T01:31:26.084Z,5.90
2017-07-01T01:33:53.613Z,6.20
2017-07-01T01:36:21.161Z,5.40
2017-07-01T01:38:48.720Z,7.27
2017-07-01T01:41:16.287Z,7.77
2017-07-01T01:43:43.863Z,5.80
2017-07-01T01:46:11.486Z,5.70
2017-07-01T01:48:39.051Z,5.50
2017-07-01T01:51:06.851Z,6.30
2017-07-01T01:53:34.447Z,6.40
2017-07-01T01:56:02.070Z,5.80
2017-07-01T01:58:29.631Z,6.00
2017-07-01T02:00:57.247Z,5.93
2017-07-01T02:03:25.049Z,6.13
2017-07-01T02:05:52.630Z,5.80
2017-07-01T02:08:20.253Z,5.97
2017-07-01T02:10:49.861Z,7.13
2017-07-01T02:13:17.420Z,7.37
2017-07-01T02:15:50.767Z,7.40
2017-07-01T02:18:26.321Z,6.30
2017-07-01T02:21:10.727Z,7.00
2017-07-01T02:23:49.808Z,6.70
2017-07-01T02:26:23.958Z,7.27
2017-07-01T02:28:56.237Z,7.87
2017-07-01T02:31:24.885Z,6.67
2017-07-01T02:33:54.867Z,8.17
2017-07-01T02:36:25.049Z,6.63
2017-07-01T02:38:53.977Z,8.03
2017-07-01T02:41:22.619Z,6.70
2017-07-01T02:43:51.114Z,7.23
2017-07-01T02:46:36.066Z,7.10
2017-07-01T02:49:21.965Z,7.53
2017-07-01T02:52:02.476Z,7.60
2017-07-01T02:54:35.063Z,8.13
2017-07-01T02:57:03.048Z,7.30
2017-07-01T02:59:33.461Z,7.10
2017-07-01T03:02:01.597Z,7.80
2017-07-01T03:04:30.746Z,7.30
2017-07-01T03:06:59.815Z,7.00
2017-07-01T03:09:28.427Z,8.70
2017-07-01T03:11:57.405Z,6.63
2017-07-01T03:14:26.153Z,7.00
2017-07-01T03:16:55.048Z,8.07
2017-07-01T03:19:24.990Z,7.13
2017-07-01T03:21:52.982Z,7.27
2017-07-01T03:24:22.320Z,6.90
2017-07-01T03:26:51.022Z,7.37
2017-07-01T03:29:26.629Z,8.70
2017-07-01T03:31:55.858Z,7.10
2017-07-01T03:34:25.100Z,8.20
2017-07-01T03:37:00.584Z,7.53
2017-07-01T03:39:40.623Z,8.10
2017-07-01T03:42:17.746Z,8.17
2017-07-01T03:44:57.836Z,8.00
2017-07-01T03:47:32.766Z,9.00
2017-07-01T03:50:02.480Z,11.33
2017-07-01T03:52:32.130Z,10.77
2017-07-01T03:55:00.728Z,15.60
2017-07-01T03:57:40.992Z,9.93
2017-07-01T04:00:09.431Z,8.40
2017-07-01T04:02:39.500Z,8.47
2017-07-01T04:05:07.678Z,8.30
2017-07-01T04:07:35.831Z,7.00
2017-07-01T04:10:08.274Z,7.90
2017-07-01T04:12:36.884Z,8.73
2017-07-01T04:15:05.019Z,8.43
2017-07-01T04:17:32.591Z,8.00
2017-07-01T04:20:01.161Z,7.87
2017-07-01T04:22:36.289Z,7.30
2017-07-01T04:25:05.298Z,7.77
2017-07-01T04:27:37.972Z,7.60
2017-07-01T04:30:08.058Z,9.83
2017-07-01T04:32:36.593Z,8.97
2017-07-01T04:35:05.234Z,8.20
2017-07-01T04:37:33.737Z,9.77
2017-07-01T04:40:07.719Z,8.00
2017-07-01T04:42:38.010Z,8.80
2017-07-01T04:45:10.403Z,7.90
2017-07-01T04:47:58.944Z,9.40
2017-07-01T04:50:40.905Z,8.87
2017-07-01T04:53:09.836Z,8.00
2017-07-01T04:55:39.283Z,8.07
2017-07-01T04:58:06.837Z,8.60
2017-07-01T05:00:49.326Z,7.70
2017-07-01T05:03:16.930Z,9.70
2017-07-01T05:05:46.283Z,9.90
2017-07-01T05:08:16.150Z,9.80
2017-07-01T05:10:54.587Z,9.53
2017-07-01T05:13:22.222Z,8.17
2017-07-01T05:15:53.579Z,8.87
2017-07-01T05:18:21.159Z,8.50
2017-07-01T05:20:49.599Z,9.67
2017-07-01T05:23:22.807Z,8.23
2017-07-01T05:25:59.786Z,8.93
2017-07-01T05:28:28.170Z,9.93
2017-07-01T05:31:29.362Z,9.50
2017-07-01T05:33:57.653Z,8.60
2017-07-01T05:36:46.473Z,8.20
2017-07-01T05:39:18.498Z,8.80
2017-07-01T05:42:22.604Z,8.40
2017-07-01T05:44:53.925Z,8.50
2017-07-01T05:47:22.955Z,7.37
2017-07-01T05:49:50.556Z,7.80
2017-07-01T05:52:22.033Z,8.33
2017-07-01T05:54:49.731Z,8.43
2017-07-01T05:57:17.408Z,8.37
2017-07-01T05:59:44.987Z,9.40
2017-07-01T06:02:17.415Z,7.97
2017-07-01T06:04:45.030Z,8.03
2017-07-01T06:07:12.884Z,7.83
2017-07-01T06:09:50.824Z,8.53
2017-07-01T06:12:32.809Z,8.33
2017-07-01T06:15:18.547Z,8.07
2017-07-01T06:17:49.963Z,8.20
2017-07-01T06:20:43.443Z,7.93
2017-07-01T06:23:12.647Z,8.40
2017-07-01T06:26:14.333Z,8.10
2017-07-01T06:29:07.150Z,8.57
2017-07-01T06:31:42.955Z,8.63
2017-07-01T06:34:10.931Z,8.53
2017-07-01T06:36:39.164Z,8.30
2017-07-01T06:39:08.523Z,7.50
2017-07-01T06:41:39.782Z,8.43
2017-07-01T06:44:23.095Z,8.40
2017-07-01T06:47:00.068Z,7.80
2017-07-01T06:49:28.440Z,9.10
2017-07-01T06:52:00.970Z,8.30
2017-07-01T06:54:29.876Z,9.10
2017-07-01T06:56:59.390Z,8.33
2017-07-01T06:59:39.267Z,8.00
2017-07-01T07:02:08.216Z,7.37
2017-07-01T07:04:42.141Z,7.93
2017-07-01T07:07:10.233Z,7.00
2017-07-01T07:09:49.873Z,7.37
2017-07-01T07:12:21.298Z,8.67
2017-07-01T07:14:49.238Z,7.33
2017-07-01T07:17:33.059Z,8.63
2017-07-01T07:20:00.631Z,8.20
2017-07-01T07:22:28.238Z,9.00
2017-07-01T07:25:17.941Z,8.50
2017-07-01T07:27:46.314Z,7.80
2017-07-01T07:30:14.141Z,8.07
2017-07-01T07:32:41.889Z,9.30
2017-07-01T07:35:09.460Z,10.10
2017-07-01T07:37:37.242Z,8.30
2017-07-01T07:40:04.909Z,7.83
2017-07-01T07:42:32.565Z,7.50
2017-07-01T07:45:00.207Z,7.17
2017-07-01T07:47:28.139Z,7.77
2017-07-01T07:50:05.295Z,8.20
2017-07-01T07:52:34.531Z,7.97
2017-07-01T07:55:02.088Z,8.03
2017-07-01T07:57:30.958Z,9.40
2017-07-01T07:59:58.503Z,7.40
2017-07-01T08:02:26.182Z,8.10
2017-07-01T08:04:53.931Z,8.33
2017-07-01T08:07:21.588Z,7.33
2017-07-01T08:09:49.273Z,8.30
2017-07-01T08:12:16.894Z,8.23
2017-07-01T08:14:44.451Z,7.90
2017-07-01T08:17:12.044Z,7.40
2017-07-01T08:19:39.837Z,8.40
2017-07-01T08:22:08.571Z,8.20
2017-07-01T08:24:36.634Z,7.30
2017-07-01T08:27:04.252Z,7.50
2017-07-01T08:29:32.223Z,7.17
2017-07-01T08:31:59.894Z,7.70
2017-07-01T08:34:27.502Z,6.60
2017-07-01T08:36:55.075Z,7.47
2017-07-01T08:39:22.732Z,6.47
2017-07-01T08:41:50.332Z,6.30
2017-07-01T08:44:18.012Z,6.77
2017-07-01T08:46:46.102Z,7.53
2017-07-01T08:49:13.670Z,6.67
2017-07-01T08:51:41.350Z,7.00
2017-07-01T08:54:08.957Z,8.40
2017-07-01T08:56:37.233Z,8.37
2017-07-01T08:59:06.118Z,8.40
2017-07-01T09:01:35.169Z,7.90
2017-07-01T09:04:04.528Z,5.20
2017-07-01T09:06:32.128Z,6.23
2017-07-01T09:09:00.362Z,5.00
2017-07-01T09:11:28.585Z,8.60
2017-07-01T09:13:56.188Z,8.53
2017-07-01T09:16:23.770Z,7.03
2017-07-01T09:18:51.293Z,4.43
2017-07-01T09:21:19.083Z,5.90
2017-07-01T09:23:46.797Z,6.80
2017-07-01T09:26:14.395Z,4.63
2017-07-01T09:28:41.940Z,5.13
2017-07-01T09:31:10.458Z,4.37
2017-07-01T09:33:37.999Z,4.33
2017-07-01T09:36:05.549Z,4.60
2017-07-01T09:38:33.137Z,4.27
2017-07-01T09:41:00.765Z,4.90
2017-07-01T09:43:28.567Z,7.07
2017-07-01T09:45:56.318Z,4.40
2017-07-01T09:48:24.109Z,4.63
2017-07-01T09:50:51.633Z,5.57
2017-07-01T09:53:19.211Z,5.10
2017-07-01T09:55:46.761Z,4.27
2017-07-01T09:58:14.293Z,5.50
2017-07-01T10:00:41.848Z,4.70
2017-07-01T10:03:09.665Z,4.60
2017-07-01T10:05:37.256Z,5.60
2017-07-01T10:08:05.040Z,5.00
2017-07-01T10:10:32.666Z,5.80
2017-07-01T10:13:00.219Z,5.70
2017-07-01T10:15:27.837Z,4.87
2017-07-01T10:17:55.441Z,5.60
2017-07-01T10:20:23.174Z,5.10
2017-07-01T10:22:50.806Z,5.40
2017-07-01T10:25:18.348Z,4.77
2017-07-01T10:27:45.914Z,4.43
2017-07-01T10:30:13.546Z,5.07
2017-07-01T10:32:41.658Z,5.77
2017-07-01T10:35:09.401Z,5.17
2017-07-01T10:37:36.970Z,4.90
2017-07-01T10:40:04.566Z,5.43
2017-07-01T10:42:32.132Z,6.77
2017-07-01T10:44:59.710Z,6.00
2017-07-01T10:47:27.481Z,6.53
2017-07-01T10:49:55.569Z,6.43
2017-07-01T10:52:23.135Z,5.43
2017-07-01T10:54:50.886Z,4.30
2017-07-01T10:57:18.468Z,6.20
2017-07-01T10:59:46.044Z,6.67
2017-07-01T11:02:13.622Z,5.60
2017-07-01T11:04:41.202Z,5.03
2017-07-01T11:07:08.950Z,4.20
2017-07-01T11:16:39.990Z,4.30
2017-07-01T11:19:15.020Z,3.50
2017-07-01T11:31:17.996Z,5.13
2017-07-01T11:33:59.572Z,4.83
2017-07-01T11:50:05.111Z,3.70
2017-07-01T11:53:01.864Z,7.10
2017-07-01T11:58:37.342Z,4.00
2017-07-01T12:01:05.526Z,4.77
2017-07-01T12:03:33.173Z,5.00
2017-07-01T12:06:00.839Z,4.77
2017-07-01T12:08:28.821Z,3.50
2017-07-01T12:10:56.500Z,4.57
2017-07-01T12:13:24.175Z,4.13
2017-07-01T12:15:52.033Z,4.20
2017-07-01T12:18:19.702Z,4.63
2017-07-01T12:20:47.410Z,5.27
2017-07-01T12:23:15.104Z,3.80
2017-07-01T12:25:42.772Z,4.50
2017-07-01T12:28:10.426Z,4.30
2017-07-01T12:30:38.079Z,4.63
2017-07-01T12:33:06.375Z,4.30
2017-07-01T12:35:34.286Z,4.00
2017-07-01T12:38:01.967Z,4.90
2017-07-01T12:40:29.634Z,4.17
2017-07-01T12:42:57.905Z,7.13
2017-07-01T12:45:25.587Z,4.97
2017-07-01T12:47:53.700Z,5.00
2017-07-01T12:50:21.332Z,5.20
2017-07-01T12:52:49.009Z,5.77
2017-07-01T12:55:22.711Z,5.10
2017-07-01T12:57:55.284Z,4.23
2017-07-01T13:00:32.473Z,3.97
2017-07-01T13:03:07.905Z,4.93
2017-07-01T13:05:37.269Z,4.10
2017-07-01T13:08:11.454Z,4.37
2017-07-01T13:10:39.395Z,5.80
2017-07-01T13:13:07.018Z,4.43
2017-07-01T13:15:34.713Z,5.30
2017-07-01T13:18:02.611Z,4.80
2017-07-01T13:20:30.243Z,4.83
2017-07-01T13:22:57.877Z,4.40
2017-07-01T13:25:25.530Z,5.10
2017-07-01T13:27:53.141Z,5.00
2017-07-01T13:30:20.837Z,5.20
2017-07-01T13:32:48.450Z,5.33
2017-07-01T13:35:16.248Z,5.43
2017-07-01T13:37:43.868Z,5.50
2017-07-01T13:40:12.145Z,5.30
2017-07-01T13:42:39.816Z,4.87
2017-07-01T13:45:07.478Z,5.50
2017-07-01T13:47:35.076Z,5.17
2017-07-01T13:50:03.153Z,7.80
2017-07-01T13:52:30.774Z,4.87
2017-07-01T13:54:58.444Z,5.03
2017-07-01T13:57:26.071Z,4.77
2017-07-01T14:00:01.443Z,4.37
2017-07-01T14:02:29.189Z,4.90
2017-07-01T14:04:56.834Z,4.60
2017-07-01T14:07:24.706Z,5.67
2017-07-01T14:09:52.376Z,4.97
2017-07-01T14:12:20.187Z,5.10
2017-07-01T14:14:47.841Z,6.03
2017-07-01T14:17:15.513Z,4.83
2017-07-01T14:19:43.805Z,5.50
2017-07-01T14:22:11.730Z,4.83
2017-07-01T14:24:39.370Z,4.80
2017-07-01T14:27:07.009Z,5.40
2017-07-01T14:29:34.629Z,4.80
2017-07-01T14:32:02.247Z,5.93
2017-07-01T14:34:30.161Z,6.23
2017-07-01T14:36:59.161Z,5.80
2017-07-01T14:39:27.470Z,6.17
2017-07-01T14:41:55.086Z,4.93
2017-07-01T14:44:23.629Z,5.53
2017-07-01T14:46:52.138Z,5.40
2017-07-01T14:49:20.599Z,5.37
2017-07-01T14:51:48.226Z,5.60
2017-07-01T14:54:15.867Z,4.97
2017-07-01T14:56:44.335Z,5.67
2017-07-01T14:59:11.933Z,4.70
2017-07-01T15:01:39.611Z,5.53
2017-07-01T15:04:07.231Z,5.43
2017-07-01T15:06:34.860Z,6.40
2017-07-01T15:09:02.493Z,4.87
2017-07-01T15:11:31.066Z,4.90
2017-07-01T15:14:00.364Z,5.30
2017-07-01T15:16:44.281Z,4.43
2017-07-01T15:19:13.899Z,5.27
2017-07-01T15:21:47.630Z,6.93
2017-07-01T15:24:36.466Z,7.10
2017-07-01T15:27:14.270Z,9.40
2017-07-01T15:29:42.501Z,6.60
2017-07-01T15:32:10.145Z,6.03
2017-07-01T15:34:37.994Z,5.63
2017-07-01T15:37:06.292Z,5.90
2017-07-01T15:39:34.443Z,5.57
2017-07-01T15:42:02.091Z,6.70
2017-07-01T15:44:30.352Z,6.67
2017-07-01T15:46:57.978Z,6.60
2017-07-01T15:49:25.878Z,7.10
2017-07-01T15:51:53.881Z,6.20
2017-07-01T15:54:21.544Z,6.57
2017-07-01T15:56:49.658Z,5.37
2017-07-01T15:59:17.290Z,5.80
2017-07-01T16:01:51.876Z,7.10
2017-07-01T16:04:19.489Z,6.43
2017-07-01T16:06:47.097Z,7.80
2017-07-01T16:09:14.899Z,6.33
2017-07-01T16:11:42.509Z,6.27
2017-07-01T16:14:10.302Z,6.80
2017-07-01T16:16:37.943Z,7.97
2017-07-01T16:19:06.644Z,5.60
2017-07-01T16:21:34.343Z,7.33
2017-07-01T16:24:02.026Z,7.07
2017-07-01T16:26:29.691Z,5.40
2017-07-01T16:28:57.495Z,6.20
2017-07-01T16:31:25.158Z,5.87
2017-07-01T16:33:52.778Z,5.97
2017-07-01T16:36:20.420Z,4.70
2017-07-01T16:38:48.780Z,5.23
2017-07-01T16:41:17.103Z,6.23
2017-07-01T16:43:44.729Z,5.30
2017-07-01T16:46:12.350Z,6.10
2017-07-01T16:48:40.120Z,6.53
2017-07-01T16:51:07.738Z,6.03
2017-07-01T16:53:35.389Z,6.00
2017-07-01T16:56:03.073Z,5.70
2017-07-01T16:58:30.885Z,5.20
2017-07-01T17:00:59.286Z,6.80
2017-07-01T17:03:26.901Z,5.90
2017-07-01T17:05:55.120Z,4.70
2017-07-01T17:08:22.760Z,6.40
2017-07-01T17:10:50.359Z,5.20
2017-07-01T17:13:18.940Z,5.60
2017-07-01T17:15:46.628Z,6.63
2017-07-01T17:18:14.269Z,5.73
2017-07-01T17:20:41.897Z,6.40
2017-07-01T17:23:09.537Z,5.93
2017-07-01T17:25:37.187Z,6.37
2017-07-01T17:28:04.898Z,5.30
2017-07-01T17:30:33.434Z,5.57
2017-07-01T17:33:01.058Z,5.53
2017-07-01T17:35:28.721Z,5.97
2017-07-01T17:37:56.397Z,5.77
2017-07-01T17:40:24.001Z,6.67
2017-07-01T17:42:51.616Z,6.37
2017-07-01T17:45:20.065Z,7.10
2017-07-01T17:47:47.685Z,5.93
2017-07-01T17:50:15.308Z,7.23
2017-07-01T17:52:42.963Z,5.90
2017-07-01T17:55:11.236Z,6.27
2017-07-01T17:57:39.209Z,8.00
2017-07-01T18:00:07.167Z,8.23
2017-07-01T18:02:35.375Z,7.00
2017-07-01T18:05:02.955Z,6.60
2017-07-01T18:07:31.216Z,7.37
2017-07-01T18:09:58.803Z,7.47
2017-07-01T18:12:26.399Z,6.40
2017-07-01T18:14:54.678Z,6.60
2017-07-01T18:17:23.087Z,7.00
2017-07-01T18:19:51.136Z,7.60
2017-07-01T18:22:18.738Z,7.50
2017-07-01T18:24:47.290Z,7.83
2017-07-01T18:27:14.893Z,8.10
2017-07-01T18:29:42.621Z,7.43
2017-07-01T18:32:10.444Z,7.20
2017-07-01T18:34:38.124Z,8.57
2017-07-01T18:37:05.760Z,9.67
2017-07-01T18:39:33.428Z,8.67
2017-07-01T18:42:01.061Z,7.87
2017-07-01T18:44:28.692Z,9.43
2017-07-01T18:46:56.303Z,8.40
2017-07-01T18:49:24.646Z,8.80
2017-07-01T18:51:52.234Z,9.80
2017-07-01T18:54:19.869Z,8.50
2017-07-01T18:56:47.517Z,7.13
2017-07-01T18:59:15.160Z,7.00
2017-07-01T19:01:42.801Z,6.80
2017-07-01T19:04:10.402Z,7.70
2017-07-01T19:06:37.982Z,9.67
2017-07-01T19:09:07.926Z,8.43
2017-07-01T19:11:36.218Z,12.43
2017-07-01T19:14:03.818Z,11.50
2017-07-01T19:16:31.470Z,9.10
2017-07-01T19:18:59.063Z,7.90
2017-07-01T19:21:26.899Z,11.20
2017-07-01T19:23:54.551Z,8.37
2017-07-01T19:26:22.158Z,9.80
2017-07-01T19:28:50.461Z,9.10
2017-07-01T19:31:18.821Z,8.83
2017-07-01T19:33:46.502Z,9.00
2017-07-01T19:36:14.948Z,8.97
2017-07-01T19:38:42.755Z,7.70
2017-07-01T19:41:11.140Z,8.87
2017-07-01T19:43:38.793Z,7.47
2017-07-01T19:46:06.594Z,14.63
2017-07-01T19:48:34.174Z,15.17
2017-07-01T19:51:01.801Z,12.03
2017-07-01T19:53:29.484Z,12.10
2017-07-01T19:55:57.235Z,12.23
2017-07-01T19:58:24.890Z,13.30
2017-07-01T20:00:52.529Z,10.77
2017-07-01T20:03:20.138Z,10.20
2017-07-01T20:05:47.702Z,9.40
2017-07-01T20:08:15.834Z,8.23
2017-07-01T20:10:43.471Z,7.60
2017-07-01T20:13:11.096Z,7.60
2017-07-01T20:15:38.838Z,7.00
2017-07-01T20:18:06.421Z,9.43
2017-07-01T20:20:34.555Z,8.07
2017-07-01T20:23:04.747Z,9.83
2017-07-01T20:25:33.213Z,8.47
2017-07-01T20:28:00.894Z,8.10
2017-07-01T20:30:28.729Z,7.80
2017-07-01T20:32:56.351Z,8.53
2017-07-01T20:35:23.996Z,7.33
2017-07-01T20:37:52.505Z,7.43
2017-07-01T20:40:21.109Z,8.07
2017-07-01T20:42:49.576Z,16.33
2017-07-01T20:45:17.171Z,33.90
2017-07-01T20:47:45.713Z,13.77
2017-07-01T20:50:13.373Z,10.03
2017-07-01T20:52:41.075Z,8.37
2017-07-01T20:55:09.262Z,7.70
2017-07-01T20:57:36.826Z,7.10
2017-07-01T21:00:05.475Z,7.80
2017-07-01T21:02:33.095Z,7.00
2017-07-01T21:05:00.842Z,7.30
2017-07-01T21:07:28.433Z,6.07
2017-07-01T21:09:56.031Z,7.10
2017-07-01T21:12:24.172Z,6.20
2017-07-01T21:14:51.824Z,7.93
2017-07-01T21:17:19.430Z,6.03
2017-07-01T21:19:47.043Z,6.87
2017-07-01T21:22:15.575Z,6.67
2017-07-01T21:24:43.246Z,6.40
2017-07-01T21:27:10.907Z,6.07
2017-07-01T21:29:38.530Z,6.70
2017-07-01T21:32:06.416Z,5.80
2017-07-01T21:34:34.019Z,6.27
2017-07-01T21:37:01.565Z,6.53
2017-07-01T21:39:29.215Z,6.70
2017-07-01T21:41:57.280Z,5.73
2017-07-01T21:44:25.338Z,6.23
2017-07-01T21:46:52.993Z,9.30
2017-07-01T21:49:20.956Z,7.77
2017-07-01T21:51:49.150Z,6.87
2017-07-01T21:54:17.703Z,6.67
2017-07-01T21:56:45.371Z,6.80
2017-07-01T21:59:12.998Z,6.63
2017-07-01T22:01:40.688Z,5.87
2017-07-01T22:04:08.839Z,6.23
2017-07-01T22:06:36.497Z,5.60
2017-07-01T22:09:04.170Z,6.00
2017-07-01T22:11:31.734Z,6.07
2017-07-01T22:14:00.266Z,5.67
2017-07-01T22:16:28.284Z,5.07
2017-07-01T22:18:55.911Z,5.40
2017-07-01T22:21:23.468Z,6.27
2017-07-01T22:23:51.076Z,7.77
2017-07-01T22:26:18.670Z,7.77
2017-07-01T22:28:46.300Z,6.63
2017-07-01T22:31:14.148Z,6.27
2017-07-01T22:33:41.778Z,5.60
2017-07-01T22:36:09.448Z,5.67
2017-07-01T22:38:37.079Z,5.50
2017-07-01T22:41:04.664Z,8.90
2017-07-01T22:43:32.251Z,5.67
2017-07-01T22:46:00.150Z,6.10
2017-07-01T22:48:27.724Z,5.60
2017-07-01T22:50:55.365Z,5.37
2017-07-01T22:53:23.042Z,5.33
2017-07-01T22:55:50.650Z,4.93
2017-07-01T22:58:18.264Z,5.23
2017-07-01T23:00:45.849Z,5.70
2017-07-01T23:03:13.466Z,6.30
2017-07-01T23:05:41.122Z,4.97
2017-07-01T23:08:08.797Z,6.00
2017-07-01T23:10:36.391Z,5.13
2017-07-01T23:13:04.005Z,5.67
2017-07-01T23:15:31.605Z,5.80
2017-07-01T23:17:59.227Z,5.63
2017-07-01T23:20:27.560Z,5.50
2017-07-01T23:22:55.162Z,5.30
2017-07-01T23:25:22.745Z,5.47
2017-07-01T23:27:50.320Z,5.23
2017-07-01T23:30:18.775Z,5.20
2017-07-01T23:32:46.352Z,5.03
2017-07-01T23:35:13.978Z,4.60
2017-07-01T23:37:41.647Z,5.53
2017-07-01T23:40:10.347Z,6.60
2017-07-01T23:42:37.965Z,5.20
2017-07-01T23:45:06.488Z,5.50
2017-07-01T23:47:34.275Z,6.60
2017-07-01T23:50:02.039Z,6.13
2017-07-01T23:52:29.706Z,5.57
2017-07-01T23:54:57.484Z,5.70
2017-07-01T23:57:25.082Z,5.30
2017-07-01T23:59:52.691Z,5.10
